createdAt,value
2018-06-25T00:00:20.194Z,20.96
2018-06-25T00:01:19.979Z,20.96
2018-06-25T00:02:20.083Z,20.95
2018-06-25T00:03:19.965Z,20.96
2018-06-25T00:04:20.016Z,21
2018-06-25T00:05:20.047Z,20.94
2018-06-25T00:06:20.089Z,20.95
2018-06-25T00:07:20.019Z,21
2018-06-25T00:08:20.071Z,20.96
2018-06-25T00:09:20.133Z,20.96
2018-06-25T00:10:20.167Z,20.96
2018-06-25T00:11:19.967Z,20.95
2018-06-25T00:12:20.025Z,20.98
2018-06-25T00:13:20.081Z,20.96
2018-06-25T00:14:20.115Z,20.96
2018-06-25T00:15:20.338Z,20.96
2018-06-25T00:16:20.185Z,20.96
2018-06-25T00:17:20.015Z,20.96
2018-06-25T00:18:20.213Z,20.98
2018-06-25T00:19:20.148Z,20.95
2018-06-25T00:20:20.053Z,20.95
2018-06-25T00:21:19.981Z,20.99
2018-06-25T00:22:19.962Z,20.95
2018-06-25T00:23:19.978Z,20.91
2018-06-25T00:24:20.123Z,20.96
2018-06-25T00:25:20.130Z,20.95
2018-06-25T00:26:20.008Z,20.98
2018-06-25T00:27:20.086Z,20.95
2018-06-25T00:28:20.018Z,20.95
2018-06-25T00:29:19.981Z,20.94
2018-06-25T00:30:20.133Z,20.96
2018-06-25T00:31:19.941Z,20.94
2018-06-25T00:32:19.956Z,20.91
2018-06-25T00:33:20.073Z,20.93
2018-06-25T00:34:20.251Z,20.92
2018-06-25T00:35:20.016Z,20.93
2018-06-25T00:36:20.010Z,20.92
2018-06-25T00:37:20.108Z,20.92
2018-06-25T00:38:20.108Z,20.92
2018-06-25T00:39:20.155Z,20.92
2018-06-25T00:40:19.977Z,20.91
2018-06-25T00:41:19.986Z,20.92
2018-06-25T00:42:20.147Z,20.92
2018-06-25T00:43:20.139Z,20.9
2018-06-25T00:44:20.374Z,20.91
2018-06-25T00:45:20.079Z,20.9
2018-06-25T00:46:19.978Z,20.9
2018-06-25T00:47:20.146Z,20.9
2018-06-25T00:48:20.097Z,20.89
2018-06-25T00:49:19.944Z,20.88
2018-06-25T00:50:20.386Z,20.87
2018-06-25T00:51:20.177Z,20.89
2018-06-25T00:52:20.157Z,20.88
2018-06-25T00:53:19.927Z,20.89
2018-06-25T00:54:20.124Z,20.9
2018-06-25T00:55:20.069Z,20.9
2018-06-25T00:56:20.072Z,20.9
2018-06-25T00:57:20.167Z,20.89
2018-06-25T00:58:20.057Z,20.87
2018-06-25T00:59:20.146Z,20.88
2018-06-25T01:00:20.147Z,20.9
2018-06-25T01:01:20.030Z,20.85
2018-06-25T01:02:20.344Z,20.89
2018-06-25T01:03:20.139Z,20.88
2018-06-25T01:04:20.066Z,20.88
2018-06-25T01:05:20.017Z,20.87
2018-06-25T01:06:20.222Z,20.87
2018-06-25T01:07:20.001Z,20.87
2018-06-25T01:08:20.123Z,20.87
2018-06-25T01:09:19.939Z,20.86
2018-06-25T01:10:19.941Z,20.89
2018-06-25T01:11:20.124Z,20.88
2018-06-25T01:12:20.029Z,20.88
2018-06-25T01:13:20.105Z,20.86
2018-06-25T01:14:20.070Z,20.86
2018-06-25T01:15:20.118Z,20.88
2018-06-25T01:16:19.940Z,20.88
2018-06-25T01:17:20.169Z,20.88
2018-06-25T01:18:20.053Z,20.87
2018-06-25T01:19:20.000Z,20.85
2018-06-25T01:20:20.192Z,20.85
2018-06-25T01:21:20.255Z,20.85
2018-06-25T01:22:20.066Z,20.85
2018-06-25T01:23:20.087Z,20.88
2018-06-25T01:24:20.040Z,20.87
2018-06-25T01:25:20.321Z,20.86
2018-06-25T01:26:19.961Z,20.85
2018-06-25T01:27:20.096Z,20.83
2018-06-25T01:28:19.950Z,20.86
2018-06-25T01:29:20.113Z,20.85
2018-06-25T01:30:20.123Z,20.86
2018-06-25T01:31:20.141Z,20.85
2018-06-25T01:32:19.959Z,20.85
2018-06-25T01:33:20.099Z,20.87
2018-06-25T01:34:19.942Z,20.85
2018-06-25T01:35:19.957Z,20.87
2018-06-25T01:36:19.989Z,20.85
2018-06-25T01:37:20.176Z,20.86
2018-06-25T01:38:20.095Z,20.88
2018-06-25T01:39:20.157Z,20.85
2018-06-25T01:40:20.149Z,20.86
2018-06-25T01:41:20.096Z,20.84
2018-06-25T01:42:20.094Z,20.86
2018-06-25T01:43:19.937Z,20.85
2018-06-25T01:44:19.962Z,20.83
2018-06-25T01:45:20.029Z,20.83
2018-06-25T01:46:20.220Z,20.85
2018-06-25T01:47:20.260Z,20.8
2018-06-25T01:48:20.185Z,20.83
2018-06-25T01:49:20.192Z,20.81
2018-06-25T01:50:20.155Z,20.83
2018-06-25T01:51:20.232Z,20.83
2018-06-25T01:52:19.990Z,20.81
2018-06-25T01:53:20.027Z,20.81
2018-06-25T01:54:20.175Z,20.81
2018-06-25T01:55:20.095Z,20.8
2018-06-25T01:56:20.047Z,20.81
2018-06-25T01:57:20.098Z,20.8
2018-06-25T01:58:20.029Z,20.79
2018-06-25T01:59:20.136Z,20.79
2018-06-25T02:00:20.005Z,20.8
2018-06-25T02:01:20.376Z,20.77
2018-06-25T02:02:20.268Z,20.8
2018-06-25T02:03:19.942Z,20.81
2018-06-25T02:04:20.474Z,20.79
2018-06-25T02:05:20.068Z,20.8
2018-06-25T02:06:19.979Z,20.81
2018-06-25T02:07:20.161Z,20.8
2018-06-25T02:08:20.002Z,20.79
2018-06-25T02:09:20.190Z,20.79
2018-06-25T02:10:19.933Z,20.8
2018-06-25T02:11:20.128Z,20.8
2018-06-25T02:12:20.054Z,20.79
2018-06-25T02:13:20.410Z,20.81
2018-06-25T02:14:19.935Z,20.8
2018-06-25T02:15:20.529Z,20.83
2018-06-25T02:16:20.104Z,20.8
2018-06-25T02:17:20.047Z,20.79
2018-06-25T02:18:19.976Z,20.79
2018-06-25T02:19:20.344Z,20.79
2018-06-25T02:20:20.137Z,20.8
2018-06-25T02:21:20.088Z,20.8
2018-06-25T02:22:20.022Z,20.8
2018-06-25T02:23:20.175Z,20.8
2018-06-25T02:24:19.885Z,20.8
2018-06-25T02:25:20.069Z,20.79
2018-06-25T02:26:20.152Z,20.77
2018-06-25T02:27:20.227Z,20.78
2018-06-25T02:28:19.980Z,20.79
2018-06-25T02:29:20.703Z,20.8
2018-06-25T02:30:20.206Z,20.79
2018-06-25T02:31:20.154Z,20.78
2018-06-25T02:32:20.023Z,20.79
2018-06-25T02:33:20.239Z,20.8
2018-06-25T02:34:20.904Z,20.8
2018-06-25T02:35:20.375Z,20.79
2018-06-25T02:36:19.952Z,20.77
2018-06-25T02:37:20.253Z,20.76
2018-06-25T02:38:20.075Z,20.78
2018-06-25T02:39:19.977Z,20.8
2018-06-25T02:40:20.079Z,20.78
2018-06-25T02:41:19.942Z,20.78
2018-06-25T02:42:20.017Z,20.79
2018-06-25T02:43:20.083Z,20.79
2018-06-25T02:44:19.945Z,20.77
2018-06-25T02:45:20.128Z,20.78
2018-06-25T02:46:20.037Z,20.76
2018-06-25T02:47:20.191Z,20.78
2018-06-25T02:48:19.851Z,20.78
2018-06-25T02:49:20.090Z,20.79
2018-06-25T02:50:19.897Z,20.78
2018-06-25T02:51:20.120Z,20.77
2018-06-25T02:52:20.529Z,20.78
2018-06-25T02:53:19.934Z,20.75
2018-06-25T02:54:20.132Z,20.78
2018-06-25T02:55:20.041Z,20.77
2018-06-25T02:56:20.184Z,20.77
2018-06-25T02:57:20.139Z,20.77
2018-06-25T02:58:20.108Z,20.78
2018-06-25T02:59:20.638Z,20.79
2018-06-25T03:00:19.900Z,20.78
2018-06-25T03:01:20.138Z,20.77
2018-06-25T03:02:20.236Z,20.76
2018-06-25T03:03:20.172Z,20.79
2018-06-25T03:04:19.970Z,20.77
2018-06-25T03:05:19.948Z,20.78
2018-06-25T03:06:20.401Z,20.77
2018-06-25T03:07:20.065Z,20.78
2018-06-25T03:08:19.987Z,20.78
2018-06-25T03:09:20.202Z,20.76
2018-06-25T03:10:20.140Z,20.76
2018-06-25T03:11:20.058Z,20.74
2018-06-25T03:12:19.968Z,20.77
2018-06-25T03:13:20.122Z,20.75
2018-06-25T03:14:19.979Z,20.75
2018-06-25T03:15:20.012Z,20.77
2018-06-25T03:16:19.926Z,20.75
2018-06-25T03:17:20.182Z,20.75
2018-06-25T03:18:20.092Z,20.77
2018-06-25T03:19:20.106Z,20.75
2018-06-25T03:20:20.217Z,20.76
2018-06-25T03:21:19.975Z,20.77
2018-06-25T03:22:20.120Z,20.75
2018-06-25T03:23:20.063Z,20.76
2018-06-25T03:24:20.279Z,20.77
2018-06-25T03:25:19.962Z,20.74
2018-06-25T03:26:20.079Z,20.77
2018-06-25T03:27:20.129Z,20.74
2018-06-25T03:28:20.115Z,20.76
2018-06-25T03:29:19.942Z,20.77
2018-06-25T03:30:20.162Z,20.76
2018-06-25T03:31:20.090Z,20.77
2018-06-25T03:32:19.989Z,20.75
2018-06-25T03:33:19.947Z,20.75
2018-06-25T03:34:20.130Z,20.73
2018-06-25T03:35:45.454Z,20.76
2018-06-25T03:36:20.036Z,20.77
2018-06-25T03:37:20.185Z,20.77
2018-06-25T03:38:19.878Z,20.78
2018-06-25T03:39:20.098Z,20.76
2018-06-25T03:40:20.099Z,20.75
2018-06-25T03:41:20.105Z,20.76
2018-06-25T03:42:19.955Z,20.76
2018-06-25T03:43:20.601Z,20.76
2018-06-25T03:44:20.117Z,20.75
2018-06-25T03:45:20.136Z,20.76
2018-06-25T03:46:20.164Z,20.75
2018-06-25T03:47:19.946Z,20.75
2018-06-25T03:48:19.890Z,20.76
2018-06-25T03:49:20.043Z,20.75
2018-06-25T03:50:19.964Z,20.77
2018-06-25T03:51:19.924Z,20.77
2018-06-25T03:52:20.006Z,20.75
2018-06-25T03:53:19.958Z,20.75
2018-06-25T03:54:19.927Z,20.77
2018-06-25T03:55:19.901Z,20.76
2018-06-25T03:56:19.918Z,20.75
2018-06-25T03:57:20.118Z,20.76
2018-06-25T03:58:20.099Z,20.77
2018-06-25T03:59:19.919Z,20.75
2018-06-25T04:00:20.043Z,20.77
2018-06-25T04:01:20.241Z,20.75
2018-06-25T04:02:20.091Z,20.75
2018-06-25T04:03:20.145Z,20.75
2018-06-25T04:04:19.946Z,20.73
2018-06-25T04:05:19.994Z,20.75
2018-06-25T04:06:19.951Z,20.73
2018-06-25T04:07:19.944Z,20.71
2018-06-25T04:08:20.116Z,20.71
2018-06-25T04:09:20.111Z,20.74
2018-06-25T04:10:20.170Z,20.72
2018-06-25T04:11:20.105Z,20.73
2018-06-25T04:12:20.016Z,20.73
2018-06-25T04:13:20.069Z,20.73
2018-06-25T04:14:19.906Z,20.73
2018-06-25T04:15:20.081Z,20.75
2018-06-25T04:16:20.134Z,20.75
2018-06-25T04:17:20.118Z,20.75
2018-06-25T04:18:20.115Z,20.75
2018-06-25T04:19:20.158Z,20.75
2018-06-25T04:20:20.127Z,20.75
2018-06-25T04:21:20.030Z,20.73
2018-06-25T04:22:20.085Z,20.73
2018-06-25T04:23:19.874Z,20.73
2018-06-25T04:24:20.096Z,20.76
2018-06-25T04:25:19.997Z,20.74
2018-06-25T04:26:19.909Z,20.75
2018-06-25T04:27:20.146Z,20.78
2018-06-25T04:28:20.021Z,20.76
2018-06-25T04:29:20.115Z,20.75
2018-06-25T04:30:20.165Z,20.76
2018-06-25T04:31:20.165Z,20.75
2018-06-25T04:32:19.963Z,20.75
2018-06-25T04:33:20.076Z,20.76
2018-06-25T04:34:20.194Z,20.72
2018-06-25T04:35:20.282Z,20.72
2018-06-25T04:36:19.985Z,20.75
2018-06-25T04:37:19.988Z,20.73
2018-06-25T04:38:20.107Z,20.74
2018-06-25T04:39:19.965Z,20.75
2018-06-25T04:40:20.393Z,20.72
2018-06-25T04:41:20.009Z,20.71
2018-06-25T04:42:20.269Z,20.74
2018-06-25T04:43:19.910Z,20.74
2018-06-25T04:44:20.034Z,20.7
2018-06-25T04:45:20.048Z,20.75
2018-06-25T04:46:19.944Z,20.72
2018-06-25T04:47:20.093Z,20.72
2018-06-25T04:48:19.968Z,20.74
2018-06-25T04:49:19.875Z,20.71
2018-06-25T04:50:20.015Z,20.72
2018-06-25T04:51:20.076Z,20.74
2018-06-25T04:52:19.859Z,20.75
2018-06-25T04:53:20.125Z,20.73
2018-06-25T04:54:20.026Z,20.74
2018-06-25T04:55:19.972Z,20.72
2018-06-25T04:56:19.962Z,20.72
2018-06-25T04:57:19.942Z,20.74
2018-06-25T04:58:20.111Z,20.72
2018-06-25T04:59:20.132Z,20.73
2018-06-25T05:00:19.989Z,20.74
2018-06-25T05:01:19.891Z,20.75
2018-06-25T05:02:20.067Z,20.71
2018-06-25T05:03:20.089Z,20.74
2018-06-25T05:04:19.968Z,20.71
2018-06-25T05:05:20.043Z,20.7
2018-06-25T05:06:19.967Z,20.72
2018-06-25T05:07:19.922Z,20.73
2018-06-25T05:08:20.086Z,20.72
2018-06-25T05:09:19.964Z,20.72
2018-06-25T05:10:20.102Z,20.72
2018-06-25T05:11:19.904Z,20.71
2018-06-25T05:12:19.869Z,20.73
2018-06-25T05:13:19.937Z,20.72
2018-06-25T05:14:20.166Z,20.73
2018-06-25T05:15:20.067Z,20.73
2018-06-25T05:16:20.103Z,20.73
2018-06-25T05:17:20.123Z,20.71
2018-06-25T05:18:20.232Z,20.71
2018-06-25T05:19:19.965Z,20.72
2018-06-25T05:20:20.116Z,20.73
2018-06-25T05:21:40.244Z,20.7
2018-06-25T05:22:19.920Z,20.72
2018-06-25T05:23:20.113Z,20.73
2018-06-25T05:24:19.965Z,20.72
2018-06-25T05:25:19.869Z,20.72
2018-06-25T05:26:20.003Z,20.7
2018-06-25T05:27:20.119Z,20.71
2018-06-25T05:28:19.892Z,20.71
2018-06-25T05:29:20.142Z,20.71
2018-06-25T05:30:19.975Z,20.71
2018-06-25T05:31:19.866Z,20.72
2018-06-25T05:32:20.045Z,20.73
2018-06-25T05:33:19.917Z,20.74
2018-06-25T05:34:19.948Z,20.73
2018-06-25T05:35:19.963Z,20.71
2018-06-25T05:36:20.089Z,20.7
2018-06-25T05:37:20.025Z,20.73
2018-06-25T05:38:20.170Z,20.71
2018-06-25T05:39:19.928Z,20.73
2018-06-25T05:40:20.001Z,20.72
2018-06-25T05:41:19.922Z,20.71
2018-06-25T05:42:20.066Z,20.73
2018-06-25T05:43:20.156Z,20.69
2018-06-25T05:44:19.859Z,20.71
2018-06-25T05:45:20.018Z,20.71
2018-06-25T05:46:20.139Z,20.73
2018-06-25T05:47:20.073Z,20.71
2018-06-25T05:48:19.992Z,20.73
2018-06-25T05:49:20.061Z,20.72
2018-06-25T05:50:19.999Z,20.71
2018-06-25T05:51:19.977Z,20.74
2018-06-25T05:52:19.984Z,20.72
2018-06-25T05:53:19.862Z,20.72
2018-06-25T05:54:19.972Z,20.72
2018-06-25T05:55:20.056Z,20.75
2018-06-25T05:56:20.147Z,20.72
2018-06-25T05:57:19.940Z,20.71
2018-06-25T05:58:20.054Z,20.7
2018-06-25T05:59:19.930Z,20.69
2018-06-25T06:00:20.057Z,20.71
2018-06-25T06:01:20.090Z,20.71
2018-06-25T06:02:19.833Z,20.7
2018-06-25T06:03:19.829Z,20.72
2018-06-25T06:04:19.864Z,20.72
2018-06-25T06:05:20.019Z,20.71
2018-06-25T06:06:19.949Z,20.69
2018-06-25T06:07:21.951Z,20.71
2018-06-25T06:08:20.017Z,20.71
2018-06-25T06:09:19.964Z,20.69
2018-06-25T06:10:20.105Z,20.71
2018-06-25T06:11:19.902Z,20.7
2018-06-25T06:12:20.302Z,20.71
2018-06-25T06:13:20.001Z,20.7
2018-06-25T06:14:19.969Z,20.7
2018-06-25T06:15:19.969Z,20.69
2018-06-25T06:16:20.027Z,20.7
2018-06-25T06:17:20.193Z,20.71
2018-06-25T06:18:20.164Z,20.68
2018-06-25T06:19:19.941Z,20.68
2018-06-25T06:20:20.117Z,20.69
2018-06-25T06:21:20.188Z,20.69
2018-06-25T06:22:20.018Z,20.69
2018-06-25T06:23:20.070Z,20.69
2018-06-25T06:24:20.289Z,20.7
2018-06-25T06:25:19.872Z,20.69
2018-06-25T06:26:20.271Z,20.68
2018-06-25T06:27:20.438Z,20.68
2018-06-25T06:28:20.124Z,20.69
2018-06-25T06:29:19.983Z,20.7
2018-06-25T06:30:20.386Z,20.68
2018-06-25T06:31:20.042Z,20.69
2018-06-25T06:32:20.018Z,20.69
2018-06-25T06:33:20.108Z,20.71
2018-06-25T06:34:20.076Z,20.69
2018-06-25T06:35:20.228Z,20.68
2018-06-25T06:36:20.085Z,20.7
2018-06-25T06:37:19.876Z,20.68
2018-06-25T06:38:19.844Z,20.68
2018-06-25T06:39:20.167Z,20.68
2018-06-25T06:40:20.013Z,20.7
2018-06-25T06:41:20.036Z,20.68
2018-06-25T06:42:19.841Z,20.7
2018-06-25T06:43:20.078Z,20.75
2018-06-25T06:44:20.013Z,20.76
2018-06-25T06:45:20.180Z,20.78
2018-06-25T06:46:20.079Z,20.78
2018-06-25T06:47:19.849Z,20.79
2018-06-25T06:48:20.023Z,20.77
2018-06-25T06:49:20.022Z,20.73
2018-06-25T06:50:20.060Z,20.74
2018-06-25T06:51:19.961Z,20.79
2018-06-25T06:52:20.032Z,20.81
2018-06-25T06:53:20.233Z,20.8
2018-06-25T06:54:20.029Z,20.75
2018-06-25T06:55:20.092Z,20.75
2018-06-25T06:56:29.965Z,20.74
2018-06-25T06:57:20.050Z,20.76
2018-06-25T06:58:20.147Z,20.75
2018-06-25T06:59:20.087Z,20.77
2018-06-25T07:00:19.936Z,20.77
2018-06-25T07:01:20.226Z,20.77
2018-06-25T07:02:19.985Z,20.76
2018-06-25T07:03:20.308Z,20.77
2018-06-25T07:04:20.064Z,20.76
2018-06-25T07:05:20.123Z,20.75
2018-06-25T07:06:20.192Z,20.75
2018-06-25T07:07:19.858Z,20.75
2018-06-25T07:08:20.099Z,20.76
2018-06-25T07:09:19.967Z,20.75
2018-06-25T07:10:20.518Z,20.76
2018-06-25T07:11:19.910Z,20.76
2018-06-25T07:12:20.080Z,20.77
2018-06-25T07:13:19.808Z,20.76
2018-06-25T07:14:19.823Z,20.76
2018-06-25T07:15:20.078Z,20.75
2018-06-25T07:16:20.026Z,20.76
2018-06-25T07:17:20.010Z,20.75
2018-06-25T07:18:19.922Z,20.75
2018-06-25T07:19:19.999Z,20.75
2018-06-25T07:20:20.015Z,20.76
2018-06-25T07:21:20.129Z,20.75
2018-06-25T07:22:19.851Z,20.75
2018-06-25T07:23:19.815Z,20.76
2018-06-25T07:24:20.035Z,20.75
2018-06-25T07:25:19.845Z,20.75
2018-06-25T07:26:19.989Z,20.75
2018-06-25T07:27:19.904Z,20.75
2018-06-25T07:28:20.043Z,20.74
2018-06-25T07:29:20.002Z,20.75
2018-06-25T07:30:19.948Z,20.77
2018-06-25T07:31:20.073Z,20.76
2018-06-25T07:32:19.890Z,20.75
2018-06-25T07:33:19.987Z,20.75
2018-06-25T07:34:20.023Z,20.78
2018-06-25T07:35:20.111Z,20.75
2018-06-25T07:36:19.975Z,20.76
2018-06-25T07:37:20.123Z,20.75
2018-06-25T07:38:20.157Z,20.75
2018-06-25T07:39:19.897Z,20.76
2018-06-25T07:40:20.112Z,20.76
2018-06-25T07:41:19.837Z,20.74
2018-06-25T07:42:20.111Z,20.79
2018-06-25T07:43:19.874Z,20.77
2018-06-25T07:44:20.018Z,20.77
2018-06-25T07:45:19.922Z,20.76
2018-06-25T07:46:19.848Z,20.75
2018-06-25T07:47:21.178Z,20.75
2018-06-25T07:48:20.202Z,20.76
2018-06-25T07:49:19.991Z,20.75
2018-06-25T07:50:30.004Z,20.75
2018-06-25T07:51:19.804Z,20.77
2018-06-25T07:52:20.141Z,20.74
2018-06-25T07:53:20.459Z,20.74
2018-06-25T07:54:19.946Z,20.75
2018-06-25T07:55:20.051Z,20.75
2018-06-25T07:56:19.922Z,20.76
2018-06-25T07:57:19.845Z,20.75
2018-06-25T07:58:19.955Z,20.77
2018-06-25T07:59:19.832Z,20.75
2018-06-25T08:00:19.984Z,20.75
2018-06-25T08:01:20.050Z,20.77
2018-06-25T08:02:20.127Z,20.75
2018-06-25T08:03:19.909Z,20.75
2018-06-25T08:04:20.006Z,20.75
2018-06-25T08:05:20.133Z,20.76
2018-06-25T08:06:20.027Z,20.75
2018-06-25T08:07:20.107Z,20.74
2018-06-25T08:08:20.066Z,20.76
2018-06-25T08:09:20.056Z,20.74
2018-06-25T08:10:20.533Z,20.74
2018-06-25T08:11:20.014Z,20.75
2018-06-25T08:12:19.918Z,20.75
2018-06-25T08:13:19.941Z,20.75
2018-06-25T08:14:20.075Z,20.75
2018-06-25T08:15:19.999Z,20.75
2018-06-25T08:16:20.806Z,20.73
2018-06-25T08:17:19.916Z,20.75
2018-06-25T08:18:19.892Z,20.75
2018-06-25T08:19:20.097Z,20.75
2018-06-25T08:20:20.213Z,20.73
2018-06-25T08:21:19.930Z,20.75
2018-06-25T08:22:20.033Z,20.75
2018-06-25T08:23:19.846Z,20.74
2018-06-25T08:24:19.988Z,20.73
2018-06-25T08:25:19.959Z,20.73
2018-06-25T08:26:19.847Z,20.74
2018-06-25T08:27:19.863Z,20.74
2018-06-25T08:28:20.016Z,20.75
2018-06-25T08:29:20.029Z,20.74
2018-06-25T08:30:19.969Z,20.75
2018-06-25T08:31:19.884Z,20.74
2018-06-25T08:32:20.046Z,20.77
2018-06-25T08:33:20.019Z,20.74
2018-06-25T08:34:21.108Z,20.73
2018-06-25T08:35:19.894Z,20.72
2018-06-25T08:36:19.958Z,20.73
2018-06-25T08:37:19.806Z,20.74
2018-06-25T08:38:19.916Z,20.72
2018-06-25T08:39:20.132Z,20.73
2018-06-25T08:40:20.733Z,20.73
2018-06-25T08:41:19.941Z,20.74
2018-06-25T08:42:20.107Z,20.74
2018-06-25T08:43:20.234Z,20.72
2018-06-25T08:44:19.791Z,20.76
2018-06-25T08:45:19.922Z,20.74
2018-06-25T08:46:19.956Z,20.73
2018-06-25T08:47:19.979Z,20.74
2018-06-25T08:48:19.992Z,20.74
2018-06-25T08:49:19.896Z,20.74
2018-06-25T08:50:20.116Z,20.74
2018-06-25T08:51:20.008Z,20.76
2018-06-25T08:52:20.135Z,20.71
2018-06-25T08:53:20.000Z,20.72
2018-06-25T08:54:20.205Z,20.72
2018-06-25T08:55:20.089Z,20.73
2018-06-25T08:56:20.006Z,20.73
2018-06-25T08:57:20.005Z,20.71
2018-06-25T08:58:19.931Z,20.75
2018-06-25T08:59:20.082Z,20.73
2018-06-25T09:00:19.891Z,20.73
2018-06-25T09:01:20.126Z,20.72
2018-06-25T09:02:19.883Z,20.72
2018-06-25T09:03:20.938Z,20.72
2018-06-25T09:04:20.516Z,20.74
2018-06-25T09:05:20.702Z,20.74
2018-06-25T09:06:20.291Z,20.73
2018-06-25T09:07:20.024Z,20.72
2018-06-25T09:08:19.981Z,20.73
2018-06-25T09:09:20.025Z,20.71
2018-06-25T09:10:19.908Z,20.72
2018-06-25T09:11:19.842Z,20.72
2018-06-25T09:12:19.967Z,20.72
2018-06-25T09:13:19.979Z,20.71
2018-06-25T09:14:19.962Z,20.73
2018-06-25T09:15:20.563Z,20.71
2018-06-25T09:16:19.961Z,20.73
2018-06-25T09:17:20.034Z,20.72
2018-06-25T09:18:19.948Z,20.73
2018-06-25T09:19:20.017Z,20.72
2018-06-25T09:20:19.775Z,20.71
2018-06-25T09:21:19.854Z,20.72
2018-06-25T09:22:20.022Z,20.73
2018-06-25T09:23:20.001Z,20.71
2018-06-25T09:24:19.910Z,20.72
2018-06-25T09:25:20.053Z,20.72
2018-06-25T09:26:19.977Z,20.72
2018-06-25T09:27:19.924Z,20.73
2018-06-25T09:28:20.039Z,20.71
2018-06-25T09:29:19.799Z,20.72
2018-06-25T09:30:19.918Z,20.74
2018-06-25T09:31:19.949Z,20.76
2018-06-25T09:32:20.046Z,20.72
2018-06-25T09:33:19.937Z,20.72
2018-06-25T09:34:20.047Z,20.73
2018-06-25T09:35:20.367Z,20.74
2018-06-25T09:36:20.127Z,20.75
2018-06-25T09:37:19.926Z,20.73
2018-06-25T09:38:19.763Z,20.77
2018-06-25T09:39:19.793Z,20.77
2018-06-25T09:40:19.875Z,20.77
2018-06-25T09:41:20.807Z,20.78
2018-06-25T09:42:19.900Z,20.79
2018-06-25T09:43:19.988Z,20.77
2018-06-25T09:44:19.771Z,20.78
2018-06-25T09:45:19.896Z,20.79
2018-06-25T09:46:20.117Z,20.78
2018-06-25T09:47:19.807Z,20.77
2018-06-25T09:48:19.868Z,20.78
2018-06-25T09:49:20.095Z,20.79
2018-06-25T09:50:19.853Z,20.8
2018-06-25T09:51:19.844Z,20.79
2018-06-25T09:52:19.826Z,20.78
2018-06-25T09:53:19.887Z,20.76
2018-06-25T09:54:19.808Z,20.77
2018-06-25T09:55:20.037Z,20.8
2018-06-25T09:56:19.806Z,20.8
2018-06-25T09:57:20.019Z,20.8
2018-06-25T09:58:19.860Z,20.79
2018-06-25T09:59:20.089Z,20.8
2018-06-25T10:00:20.063Z,20.8
2018-06-25T10:01:19.787Z,20.81
2018-06-25T10:02:20.020Z,20.8
2018-06-25T10:03:20.029Z,20.81
2018-06-25T10:04:20.058Z,20.8
2018-06-25T10:05:20.365Z,20.81
2018-06-25T10:06:20.053Z,20.8
2018-06-25T10:07:19.819Z,20.79
2018-06-25T10:08:19.935Z,20.81
2018-06-25T10:09:19.973Z,20.81
2018-06-25T10:10:20.059Z,20.79
2018-06-25T10:11:20.397Z,20.8
2018-06-25T10:12:20.129Z,20.79
2018-06-25T10:13:20.119Z,20.79
2018-06-25T10:14:19.927Z,20.79
2018-06-25T10:15:20.337Z,20.79
2018-06-25T10:16:19.863Z,20.8
2018-06-25T10:17:20.184Z,20.79
2018-06-25T10:18:20.041Z,20.8
2018-06-25T10:19:20.068Z,20.81
2018-06-25T10:20:19.895Z,20.77
2018-06-25T10:21:20.343Z,20.8
2018-06-25T10:22:19.969Z,20.78
2018-06-25T10:23:19.990Z,20.79
2018-06-25T10:24:19.947Z,20.79
2018-06-25T10:25:19.810Z,20.79
2018-06-25T10:26:20.041Z,20.79
2018-06-25T10:27:20.045Z,20.81
2018-06-25T10:28:19.959Z,20.8
2018-06-25T10:29:19.956Z,20.77
2018-06-25T10:30:20.012Z,20.81
2018-06-25T10:31:20.168Z,20.79
2018-06-25T10:32:19.805Z,20.8
2018-06-25T10:33:20.079Z,20.79
2018-06-25T10:34:19.872Z,20.8
2018-06-25T10:35:20.100Z,20.79
2018-06-25T10:36:19.995Z,20.79
2018-06-25T10:37:20.014Z,20.79
2018-06-25T10:38:19.942Z,20.79
2018-06-25T10:39:19.959Z,20.79
2018-06-25T10:40:20.062Z,20.81
2018-06-25T10:41:19.855Z,20.79
2018-06-25T10:42:20.454Z,20.81
2018-06-25T10:43:19.739Z,20.8
2018-06-25T10:44:19.819Z,20.8
2018-06-25T10:45:19.910Z,20.8
2018-06-25T10:46:20.044Z,20.8
2018-06-25T10:47:19.913Z,20.79
2018-06-25T10:48:19.916Z,20.81
2018-06-25T10:49:20.096Z,20.81
2018-06-25T10:50:19.870Z,20.79
2018-06-25T10:51:20.399Z,20.8
2018-06-25T10:52:19.796Z,20.79
2018-06-25T10:53:19.884Z,20.79
2018-06-25T10:54:19.875Z,20.81
2018-06-25T10:55:20.007Z,20.89
2018-06-25T10:56:19.795Z,20.91
2018-06-25T10:57:19.771Z,20.85
2018-06-25T10:58:19.991Z,20.87
2018-06-25T10:59:20.149Z,20.85
2018-06-25T11:00:21.355Z,20.81
2018-06-25T11:01:19.789Z,20.79
2018-06-25T11:02:19.772Z,20.79
2018-06-25T11:03:19.839Z,20.8
2018-06-25T11:04:19.892Z,20.77
2018-06-25T11:05:19.921Z,20.76
2018-06-25T11:06:19.869Z,20.78
2018-06-25T11:07:20.923Z,20.78
2018-06-25T11:08:19.984Z,20.75
2018-06-25T11:09:19.877Z,20.78
2018-06-25T11:10:19.834Z,20.76
2018-06-25T11:11:19.814Z,20.74
2018-06-25T11:12:19.937Z,20.72
2018-06-25T11:13:20.090Z,20.73
2018-06-25T11:14:19.776Z,20.72
2018-06-25T11:15:19.999Z,20.73
2018-06-25T11:16:20.017Z,20.73
2018-06-25T11:17:19.967Z,20.7
2018-06-25T11:18:19.896Z,20.72
2018-06-25T11:19:19.754Z,20.7
2018-06-25T11:20:19.879Z,20.71
2018-06-25T11:21:19.837Z,20.71
2018-06-25T11:22:19.941Z,20.71
2018-06-25T11:23:20.043Z,20.71
2018-06-25T11:24:19.915Z,20.71
2018-06-25T11:25:20.121Z,20.7
2018-06-25T11:26:19.982Z,20.71
2018-06-25T11:27:20.544Z,20.71
2018-06-25T11:28:19.916Z,20.71
2018-06-25T11:29:19.904Z,20.71
2018-06-25T11:30:20.014Z,20.68
2018-06-25T11:31:20.198Z,20.68
2018-06-25T11:32:19.891Z,20.68
2018-06-25T11:33:19.759Z,20.68
2018-06-25T11:34:20.085Z,20.68
2018-06-25T11:35:19.788Z,20.7
2018-06-25T11:36:20.054Z,20.7
2018-06-25T11:37:19.769Z,20.72
2018-06-25T11:38:19.942Z,20.71
2018-06-25T11:39:20.063Z,20.71
2018-06-25T11:40:20.076Z,20.7
2018-06-25T11:41:19.812Z,20.69
2018-06-25T11:42:20.084Z,20.7
2018-06-25T11:43:19.914Z,20.7
2018-06-25T11:44:19.945Z,20.71
2018-06-25T11:45:19.889Z,20.66
2018-06-25T11:46:19.876Z,20.7
2018-06-25T11:47:19.800Z,20.71
2018-06-25T11:48:19.942Z,20.74
2018-06-25T11:49:19.802Z,20.73
2018-06-25T11:50:19.997Z,20.72
2018-06-25T11:51:19.889Z,20.75
2018-06-25T11:52:20.107Z,20.72
2018-06-25T11:53:20.024Z,20.72
2018-06-25T11:54:20.048Z,20.74
2018-06-25T11:55:20.153Z,20.73
2018-06-25T11:56:19.909Z,20.71
2018-06-25T11:57:19.754Z,20.71
2018-06-25T11:58:20.057Z,20.71
2018-06-25T11:59:19.723Z,20.75
2018-06-25T12:00:19.944Z,20.75
2018-06-25T12:01:20.050Z,20.73
2018-06-25T12:02:19.919Z,20.73
2018-06-25T12:03:20.756Z,20.75
2018-06-25T12:04:19.893Z,20.74
2018-06-25T12:05:19.962Z,20.75
2018-06-25T12:06:19.737Z,20.73
2018-06-25T12:07:19.961Z,20.73
2018-06-25T12:08:19.997Z,20.75
2018-06-25T12:09:19.972Z,20.78
2018-06-25T12:10:19.779Z,20.76
2018-06-25T12:11:19.931Z,20.74
2018-06-25T12:12:20.410Z,20.75
2018-06-25T12:13:20.102Z,20.76
2018-06-25T12:14:19.929Z,20.79
2018-06-25T12:15:19.791Z,20.81
2018-06-25T12:16:19.838Z,20.76
2018-06-25T12:17:19.891Z,20.78
2018-06-25T12:18:19.864Z,20.79
2018-06-25T12:19:20.111Z,20.78
2018-06-25T12:20:20.025Z,20.84
2018-06-25T12:21:19.987Z,20.8
2018-06-25T12:22:19.959Z,20.79
2018-06-25T12:23:20.349Z,20.81
2018-06-25T12:24:19.859Z,20.79
2018-06-25T12:25:19.942Z,20.79
2018-06-25T12:26:19.871Z,20.86
2018-06-25T12:27:19.957Z,20.88
2018-06-25T12:28:19.891Z,20.87
2018-06-25T12:29:19.913Z,20.89
2018-06-25T12:30:19.821Z,20.87
2018-06-25T12:31:20.269Z,20.85
2018-06-25T12:32:20.028Z,20.86
2018-06-25T12:33:19.871Z,20.86
2018-06-25T12:34:19.872Z,20.88
2018-06-25T12:35:19.758Z,20.88
2018-06-25T12:36:20.028Z,20.92
2018-06-25T12:37:20.161Z,20.88
2018-06-25T12:38:20.037Z,20.87
2018-06-25T12:39:20.074Z,20.89
2018-06-25T12:40:20.078Z,20.89
2018-06-25T12:41:20.101Z,20.9
2018-06-25T12:42:19.891Z,20.91
2018-06-25T12:43:19.911Z,20.89
2018-06-25T12:44:19.848Z,20.89
2018-06-25T12:45:19.785Z,20.9
2018-06-25T12:46:19.940Z,20.92
2018-06-25T12:47:19.931Z,20.94
2018-06-25T12:48:20.141Z,20.93
2018-06-25T12:49:20.132Z,20.92
2018-06-25T12:50:19.857Z,20.91
2018-06-25T12:51:19.821Z,20.94
2018-06-25T12:52:20.018Z,20.95
2018-06-25T12:53:19.708Z,20.93
2018-06-25T12:54:20.072Z,20.98
2018-06-25T12:55:19.949Z,20.93